createdAt,value
2019-02-15T00:00:36.027Z,14.03
2019-02-15T00:03:10.503Z,17.87
2019-02-15T00:05:46.499Z,21.40
2019-02-15T00:08:20.543Z,37.83
2019-02-15T00:10:56.298Z,32.30
2019-02-15T00:13:30.307Z,8.67
2019-02-15T00:16:04.924Z,8.80
2019-02-15T00:18:58.984Z,6.53
2019-02-15T00:21:40.267Z,7.87
2019-02-15T00:24:15.074Z,17.53
2019-02-15T00:26:49.512Z,6.57
2019-02-15T00:29:24.145Z,7.93
2019-02-15T00:31:57.677Z,14.20
2019-02-15T00:34:31.917Z,42.23
2019-02-15T00:37:06.278Z,27.80
2019-02-15T00:39:44.337Z,25.97
2019-02-15T00:42:17.763Z,16.87
2019-02-15T00:44:51.699Z,26.07
2019-02-15T00:47:46.948Z,43.13
2019-02-15T00:50:35.101Z,27.90
2019-02-15T00:53:37.904Z,32.77
2019-02-15T00:56:32.692Z,30.43
2019-02-15T00:59:33.583Z,34.70
2019-02-15T01:02:19.172Z,27.30
2019-02-15T01:05:04.910Z,24.57
2019-02-15T01:08:13.463Z,32.43
2019-02-15T01:11:19.505Z,13.00
2019-02-15T01:13:53.363Z,26.97
2019-02-15T01:16:26.873Z,41.43
2019-02-15T01:19:01.507Z,24.13
2019-02-15T01:21:35.011Z,22.30
2019-02-15T01:24:08.932Z,14.87
2019-02-15T01:26:47.365Z,17.23
2019-02-15T01:29:44.134Z,17.37
2019-02-15T01:32:46.177Z,22.20
2019-02-15T01:35:43.459Z,14.67
2019-02-15T01:38:37.339Z,20.97
2019-02-15T01:41:25.186Z,18.33
2019-02-15T01:44:23.139Z,14.60
2019-02-15T01:47:20.775Z,13.00
2019-02-15T01:49:54.322Z,18.77
2019-02-15T01:52:30.773Z,28.90
2019-02-15T01:55:03.951Z,41.90
2019-02-15T01:57:39.047Z,23.40
2019-02-15T02:00:17.550Z,16.93
2019-02-15T02:02:51.553Z,12.33
2019-02-15T02:05:25.310Z,14.67
2019-02-15T02:07:59.316Z,17.23
2019-02-15T02:10:32.893Z,13.03
2019-02-15T02:13:09.407Z,9.80
2019-02-15T02:15:42.851Z,7.60
2019-02-15T02:18:17.071Z,12.87
2019-02-15T02:20:50.560Z,16.93
2019-02-15T02:23:24.729Z,12.70
2019-02-15T02:25:59.748Z,17.20
2019-02-15T02:28:36.287Z,18.73
2019-02-15T02:31:13.626Z,13.07
2019-02-15T02:33:49.037Z,12.00
2019-02-15T02:36:26.398Z,7.30
2019-02-15T02:39:01.223Z,11.40
2019-02-15T02:41:38.371Z,9.27
2019-02-15T02:44:13.360Z,26.07
2019-02-15T02:46:49.845Z,14.57
2019-02-15T02:49:24.031Z,9.53
2019-02-15T02:51:59.978Z,7.67
2019-02-15T02:54:33.788Z,8.93
2019-02-15T02:57:07.900Z,10.47
2019-02-15T02:59:41.802Z,12.27
2019-02-15T03:02:15.426Z,15.50
2019-02-15T03:04:49.973Z,20.43
2019-02-15T03:07:23.755Z,9.50
2019-02-15T03:09:57.550Z,10.27
2019-02-15T03:12:33.839Z,7.50
2019-02-15T03:15:07.941Z,6.80
2019-02-15T03:17:41.532Z,4.83
2019-02-15T03:20:15.441Z,7.97
2019-02-15T03:22:51.355Z,5.97
2019-02-15T03:25:28.104Z,7.50
2019-02-15T03:28:01.582Z,7.43
2019-02-15T03:30:36.158Z,4.83
2019-02-15T03:33:09.913Z,6.07
2019-02-15T03:35:56.695Z,5.87
2019-02-15T03:38:47.909Z,5.57
2019-02-15T03:41:34.137Z,5.83
2019-02-15T03:44:07.745Z,7.80
2019-02-15T03:46:41.869Z,6.30
2019-02-15T03:49:15.481Z,10.20
2019-02-15T03:51:49.157Z,10.57
2019-02-15T03:54:25.006Z,11.53
2019-02-15T03:56:58.558Z,17.00
2019-02-15T03:59:34.519Z,13.00
2019-02-15T04:02:12.935Z,9.40
2019-02-15T04:04:46.738Z,5.50
2019-02-15T04:07:20.942Z,7.23
2019-02-15T04:09:54.895Z,6.93
2019-02-15T04:12:28.827Z,9.93
2019-02-15T04:15:02.413Z,7.20
2019-02-15T04:17:36.235Z,7.97
2019-02-15T04:20:10.301Z,6.10
2019-02-15T04:22:43.992Z,6.57
2019-02-15T04:25:17.535Z,6.37
2019-02-15T04:27:52.223Z,21.50
2019-02-15T04:30:25.988Z,56.53
2019-02-15T04:33:02.419Z,63.30
2019-02-15T04:35:35.943Z,26.50
2019-02-15T04:38:09.887Z,15.90
2019-02-15T04:40:44.508Z,16.77
2019-02-15T04:43:19.500Z,58.50
2019-02-15T04:45:52.858Z,24.43
2019-02-15T04:48:28.532Z,14.53
2019-02-15T04:51:03.750Z,21.33
2019-02-15T04:53:37.539Z,17.20
2019-02-15T04:56:11.004Z,18.03
2019-02-15T04:58:45.410Z,8.87
2019-02-15T05:01:19.112Z,27.03
2019-02-15T05:03:53.247Z,17.00
2019-02-15T05:06:26.959Z,11.03
2019-02-15T05:09:01.027Z,14.57
2019-02-15T05:11:35.035Z,13.13
2019-02-15T05:14:09.361Z,13.70
2019-02-15T05:16:43.455Z,9.23
2019-02-15T05:19:17.404Z,22.83
2019-02-15T05:21:50.895Z,27.40
2019-02-15T05:24:25.021Z,21.40
2019-02-15T05:26:58.735Z,35.17
2019-02-15T05:29:35.865Z,8.33
2019-02-15T05:32:11.739Z,18.03
2019-02-15T05:34:46.778Z,14.73
2019-02-15T05:37:20.939Z,18.30
2019-02-15T05:39:55.433Z,29.50
2019-02-15T05:42:29.158Z,17.07
2019-02-15T05:45:04.452Z,23.07
2019-02-15T05:47:38.208Z,23.20
2019-02-15T05:50:12.280Z,58.87
2019-02-15T05:52:46.185Z,16.87
2019-02-15T05:55:20.923Z,31.10
2019-02-15T05:57:54.826Z,14.33
2019-02-15T06:00:37.290Z,25.53
2019-02-15T06:03:18.398Z,24.47
2019-02-15T06:05:55.394Z,25.90
2019-02-15T06:08:31.374Z,24.83
2019-02-15T06:11:07.801Z,20.80
2019-02-15T06:13:40.847Z,18.73
2019-02-15T06:16:14.953Z,21.87
2019-02-15T06:18:51.261Z,26.10
2019-02-15T06:21:25.391Z,38.85
2019-02-15T06:24:01.831Z,22.90
2019-02-15T06:26:36.310Z,24.03
2019-02-15T06:29:10.494Z,32.77
2019-02-15T06:31:45.247Z,28.57
2019-02-15T06:34:21.867Z,43.20
2019-02-15T06:36:57.541Z,33.13
2019-02-15T06:39:31.326Z,35.57
2019-02-15T06:42:06.218Z,36.37
2019-02-15T06:44:40.839Z,36.73
2019-02-15T06:47:15.759Z,33.77
2019-02-15T06:49:50.143Z,21.07
2019-02-15T06:52:23.897Z,39.53
2019-02-15T06:55:01.326Z,26.97
2019-02-15T06:57:35.738Z,35.33
2019-02-15T07:00:29.214Z,28.70
2019-02-15T07:03:24.008Z,30.07
2019-02-15T07:05:58.958Z,21.53
2019-02-15T07:08:34.390Z,30.67
2019-02-15T07:11:08.848Z,24.20
2019-02-15T07:13:44.946Z,31.37
2019-02-15T07:16:19.358Z,36.87
2019-02-15T07:18:54.065Z,23.83
2019-02-15T07:21:28.161Z,38.07
2019-02-15T07:24:07.984Z,25.13
2019-02-15T07:26:45.406Z,26.53
2019-02-15T07:29:26.587Z,31.13
2019-02-15T07:32:06.835Z,36.13
2019-02-15T07:35:03.533Z,25.17
2019-02-15T07:37:39.730Z,25.77
2019-02-15T07:40:14.274Z,35.03
2019-02-15T07:42:47.727Z,32.63
2019-02-15T07:45:28.643Z,25.17
2019-02-15T07:48:08.029Z,24.03
2019-02-15T07:50:49.864Z,21.17
2019-02-15T07:53:29.459Z,19.30
2019-02-15T07:56:05.439Z,15.43
2019-02-15T07:58:40.255Z,12.70
2019-02-15T08:01:16.151Z,32.33
2019-02-15T08:04:03.278Z,20.40
2019-02-15T08:06:37.917Z,26.20
2019-02-15T08:09:14.887Z,18.47
2019-02-15T08:11:50.750Z,21.40
2019-02-15T08:14:31.951Z,21.13
2019-02-15T08:17:14.508Z,26.43
2019-02-15T08:19:49.289Z,21.57
2019-02-15T08:22:25.341Z,35.07
2019-02-15T08:24:59.854Z,12.03
2019-02-15T08:27:45.497Z,12.27
2019-02-15T08:30:22.047Z,9.43
2019-02-15T08:32:57.820Z,16.90
2019-02-15T08:35:31.933Z,22.37
2019-02-15T08:38:07.537Z,11.10
2019-02-15T08:40:41.227Z,12.83
2019-02-15T08:43:17.573Z,15.37
2019-02-15T08:46:00.518Z,14.93
2019-02-15T08:48:45.701Z,21.17
2019-02-15T08:51:19.517Z,11.30
2019-02-15T08:53:54.625Z,6.70
2019-02-15T08:56:33.528Z,10.73
2019-02-15T08:59:08.439Z,12.53
2019-02-15T09:01:43.259Z,8.77
2019-02-15T09:04:18.647Z,6.43
2019-02-15T09:06:53.698Z,6.03
2019-02-15T09:09:28.234Z,5.30
2019-02-15T09:12:01.485Z,8.93
2019-02-15T09:14:37.787Z,6.50
2019-02-15T09:17:11.938Z,3.80
2019-02-15T09:19:48.830Z,7.57
2019-02-15T09:22:24.915Z,4.10
2019-02-15T09:25:01.050Z,11.17
2019-02-15T09:27:58.763Z,5.60
2019-02-15T09:30:32.993Z,14.40
2019-02-15T09:33:09.158Z,7.73
2019-02-15T09:35:43.770Z,4.87
2019-02-15T09:38:18.081Z,5.43
2019-02-15T09:40:53.117Z,6.27
2019-02-15T09:43:29.548Z,7.10
2019-02-15T09:46:04.356Z,6.80
2019-02-15T09:48:39.607Z,12.97
2019-02-15T09:51:13.909Z,7.13
2019-02-15T09:53:50.218Z,20.27
2019-02-15T09:56:25.653Z,13.63
2019-02-15T09:59:01.777Z,6.10
2019-02-15T10:01:39.234Z,6.07
2019-02-15T10:04:14.867Z,6.13
2019-02-15T10:07:02.512Z,6.17
2019-02-15T10:09:36.821Z,3.13
2019-02-15T10:12:10.876Z,7.13
2019-02-15T10:14:45.399Z,7.30
2019-02-15T10:17:21.949Z,10.43
2019-02-15T10:19:56.092Z,10.53
2019-02-15T10:22:31.697Z,5.97
2019-02-15T10:25:06.263Z,9.30
2019-02-15T10:27:42.087Z,6.30
2019-02-15T10:30:16.390Z,6.13
2019-02-15T10:32:51.797Z,13.47
2019-02-15T10:35:25.817Z,11.43
2019-02-15T10:38:04.099Z,7.30
2019-02-15T10:40:39.253Z,10.13
2019-02-15T10:43:14.026Z,5.80
2019-02-15T10:45:50.201Z,6.13
2019-02-15T10:48:28.389Z,5.37
2019-02-15T10:51:02.566Z,9.17
2019-02-15T10:53:37.909Z,5.77
2019-02-15T10:56:12.637Z,6.93
2019-02-15T10:58:53.482Z,4.07
2019-02-15T11:01:30.212Z,6.47
2019-02-15T11:04:06.073Z,11.37
2019-02-15T11:06:42.159Z,15.53
2019-02-15T11:09:32.855Z,5.83
2019-02-15T11:12:08.875Z,6.63
2019-02-15T11:14:44.807Z,7.17
2019-02-15T11:17:26.837Z,8.50
2019-02-15T11:20:02.234Z,9.83
2019-02-15T11:22:37.299Z,8.33
2019-02-15T11:25:14.325Z,9.17
2019-02-15T11:27:50.184Z,9.10
2019-02-15T11:30:27.997Z,5.77
2019-02-15T11:33:03.172Z,5.80
2019-02-15T11:35:39.067Z,6.20
2019-02-15T11:38:13.881Z,8.60
2019-02-15T11:40:49.745Z,9.00
2019-02-15T11:43:26.154Z,7.90
2019-02-15T11:46:01.253Z,11.53
2019-02-15T11:48:35.655Z,13.40
2019-02-15T11:51:11.023Z,6.63
2019-02-15T11:53:46.481Z,11.00
2019-02-15T11:56:22.020Z,7.83
2019-02-15T11:58:57.880Z,7.33
2019-02-15T12:01:34.762Z,4.90
2019-02-15T12:04:10.150Z,9.93
2019-02-15T12:06:50.964Z,7.23
2019-02-15T12:09:25.559Z,10.03
2019-02-15T12:12:00.044Z,8.17
2019-02-15T12:14:35.398Z,13.90
2019-02-15T12:17:12.005Z,8.43
2019-02-15T12:20:04.150Z,4.80
2019-02-15T12:22:45.112Z,9.83
2019-02-15T12:25:21.199Z,16.00
2019-02-15T12:27:56.183Z,9.33
2019-02-15T12:30:32.887Z,10.77
2019-02-15T12:33:12.561Z,9.10
2019-02-15T12:35:48.069Z,5.20
2019-02-15T12:38:24.983Z,5.43
2019-02-15T12:40:59.980Z,3.47
2019-02-15T12:43:44.571Z,13.33
2019-02-15T12:46:18.919Z,8.97
2019-02-15T12:48:54.754Z,17.33
2019-02-15T12:51:32.202Z,8.77
2019-02-15T12:54:09.450Z,8.83
2019-02-15T12:56:44.299Z,11.07
2019-02-15T12:59:20.149Z,5.90
2019-02-15T13:01:54.755Z,5.03
2019-02-15T13:04:30.708Z,8.07
2019-02-15T13:07:07.682Z,5.27
2019-02-15T13:09:44.667Z,4.67
2019-02-15T13:12:21.957Z,9.50
2019-02-15T13:15:01.532Z,11.30
2019-02-15T13:17:36.854Z,10.67
2019-02-15T13:20:11.690Z,12.77
2019-02-15T13:22:54.655Z,7.07
2019-02-15T13:25:39.305Z,16.47
2019-02-15T13:28:14.665Z,3.53
2019-02-15T13:30:54.707Z,11.10
2019-02-15T13:33:31.681Z,8.17
2019-02-15T13:36:06.808Z,10.20
2019-02-15T13:38:41.312Z,12.20
2019-02-15T13:41:15.953Z,6.50
2019-02-15T13:43:50.029Z,17.00
2019-02-15T13:46:25.779Z,7.23
2019-02-15T13:49:01.018Z,7.40
2019-02-15T13:51:35.409Z,4.57
2019-02-15T13:54:10.456Z,11.03
2019-02-15T13:56:47.202Z,9.73
2019-02-15T13:59:21.943Z,5.43
2019-02-15T14:01:56.829Z,6.73
2019-02-15T14:04:32.203Z,18.33
2019-02-15T14:07:19.023Z,18.23
2019-02-15T14:09:53.186Z,12.03
2019-02-15T14:12:30.904Z,15.17
2019-02-15T14:15:05.761Z,8.37
2019-02-15T14:17:45.354Z,7.13
2019-02-15T14:20:16.486Z,4.73
2019-02-15T14:22:51.445Z,17.10
2019-02-15T14:25:29.357Z,7.77
2019-02-15T14:28:05.143Z,3.77
2019-02-15T14:30:40.333Z,9.20
2019-02-15T14:33:14.943Z,15.27
2019-02-15T14:35:51.497Z,7.80
2019-02-15T14:38:26.645Z,4.80
2019-02-15T14:41:01.355Z,8.07
2019-02-15T14:43:39.002Z,5.63
2019-02-15T14:46:13.785Z,8.47
2019-02-15T14:48:48.164Z,10.83
2019-02-15T14:51:23.043Z,21.17
2019-02-15T14:54:02.844Z,6.47
2019-02-15T14:56:38.954Z,9.27
2019-02-15T14:59:15.053Z,8.10
2019-02-15T15:01:50.052Z,15.50
2019-02-15T15:04:24.368Z,5.23
2019-02-15T15:06:59.034Z,11.83
2019-02-15T15:09:35.069Z,7.37
2019-02-15T15:12:09.010Z,9.70
2019-02-15T15:14:44.003Z,5.07
2019-02-15T15:17:19.849Z,11.17
2019-02-15T15:19:57.143Z,7.70
2019-02-15T15:22:32.432Z,17.87
2019-02-15T15:25:08.605Z,8.73
2019-02-15T15:27:43.532Z,16.53
2019-02-15T15:30:19.880Z,9.70
2019-02-15T15:32:54.983Z,15.53
2019-02-15T15:35:29.901Z,19.17
2019-02-15T15:38:04.718Z,17.47
2019-02-15T15:40:38.611Z,10.03
2019-02-15T15:43:12.799Z,20.40
2019-02-15T15:45:51.081Z,10.87
2019-02-15T15:48:25.099Z,9.27
2019-02-15T15:51:18.015Z,21.33
2019-02-15T15:53:56.526Z,7.40
2019-02-15T15:56:30.805Z,15.97
2019-02-15T15:59:05.259Z,4.73
2019-02-15T16:01:40.072Z,10.03
2019-02-15T16:04:15.230Z,14.83
2019-02-15T16:06:51.195Z,17.70
2019-02-15T16:09:25.576Z,18.43
2019-02-15T16:12:17.667Z,22.27
2019-02-15T16:14:53.304Z,11.33
2019-02-15T16:17:30.982Z,14.37
2019-02-15T16:20:15.784Z,11.53
2019-02-15T16:22:50.176Z,15.03
2019-02-15T16:25:24.541Z,13.63
2019-02-15T16:27:59.371Z,8.70
2019-02-15T16:30:33.978Z,9.13
2019-02-15T16:33:10.510Z,23.63
2019-02-15T16:35:44.529Z,8.70
2019-02-15T16:38:20.040Z,12.83
2019-02-15T16:40:58.051Z,19.93
2019-02-15T16:43:32.781Z,15.27
2019-02-15T16:46:08.052Z,16.80
2019-02-15T16:48:43.857Z,19.87
2019-02-15T16:51:18.384Z,8.33
2019-02-15T16:53:55.417Z,12.47
2019-02-15T16:56:29.375Z,31.43
2019-02-15T16:59:04.534Z,15.73
2019-02-15T17:01:43.486Z,19.50
2019-02-15T17:04:17.876Z,27.53
2019-02-15T17:06:51.607Z,27.97
2019-02-15T17:09:26.754Z,18.60
2019-02-15T17:12:02.021Z,17.13
2019-02-15T17:14:36.857Z,13.77
2019-02-15T17:17:10.733Z,15.57
2019-02-15T17:19:44.734Z,17.50
2019-02-15T17:22:19.377Z,21.13
2019-02-15T17:24:54.067Z,31.47
2019-02-15T17:27:29.543Z,26.10
2019-02-15T17:30:04.731Z,24.97
2019-02-15T17:32:39.234Z,29.80
2019-02-15T17:35:14.489Z,31.80
2019-02-15T17:37:49.814Z,34.00
2019-02-15T17:40:25.254Z,57.33
2019-02-15T17:42:59.398Z,37.60
2019-02-15T17:45:35.335Z,24.77
2019-02-15T17:48:14.092Z,23.13
2019-02-15T17:50:49.552Z,26.17
2019-02-15T17:53:24.264Z,24.47
2019-02-15T17:56:01.470Z,17.20
2019-02-15T17:58:38.288Z,15.73
2019-02-15T18:01:13.396Z,22.10
2019-02-15T18:03:49.251Z,26.00
2019-02-15T18:06:24.043Z,22.07
2019-02-15T18:08:58.368Z,22.53
2019-02-15T18:11:32.349Z,31.73
2019-02-15T18:14:07.183Z,27.50
2019-02-15T18:16:43.069Z,36.97
2019-02-15T18:19:19.033Z,35.63
2019-02-15T18:21:53.275Z,36.03
2019-02-15T18:24:28.862Z,39.40
2019-02-15T18:27:08.977Z,18.70
2019-02-15T18:29:47.377Z,26.07
2019-02-15T18:32:22.281Z,39.90
2019-02-15T18:34:56.779Z,50.53
2019-02-15T18:37:31.164Z,54.50
2019-02-15T18:40:07.735Z,44.17
2019-02-15T18:42:42.633Z,51.13
2019-02-15T18:45:20.403Z,47.97
2019-02-15T18:47:55.511Z,49.97
2019-02-15T18:50:33.403Z,36.73
2019-02-15T18:53:08.728Z,37.67
2019-02-15T18:55:45.442Z,56.30
2019-02-15T18:58:21.134Z,55.00
2019-02-15T19:00:54.939Z,52.47
2019-02-15T19:03:29.715Z,51.87
2019-02-15T19:06:04.496Z,83.07
2019-02-15T19:08:39.030Z,65.33
2019-02-15T19:11:15.770Z,70.00
2019-02-15T19:13:51.044Z,69.30
2019-02-15T19:16:25.881Z,96.90
2019-02-15T19:19:00.043Z,51.40
2019-02-15T19:21:35.114Z,45.93
2019-02-15T19:24:09.862Z,40.30
2019-02-15T19:26:44.714Z,57.97
2019-02-15T19:29:19.557Z,67.47
2019-02-15T19:31:55.017Z,74.20
2019-02-15T19:34:30.418Z,36.47
2019-02-15T19:37:04.846Z,49.43
2019-02-15T19:39:39.613Z,48.07
2019-02-15T19:42:18.851Z,55.03
2019-02-15T19:44:54.045Z,40.70
2019-02-15T19:47:28.041Z,43.43
2019-02-15T19:50:03.175Z,27.57
2019-02-15T19:52:40.966Z,30.37
2019-02-15T19:55:16.131Z,21.57
2019-02-15T19:57:50.588Z,24.50
2019-02-15T20:00:25.879Z,30.77
2019-02-15T20:03:00.968Z,29.13
2019-02-15T20:05:35.948Z,84.23
2019-02-15T20:08:11.061Z,27.90
2019-02-15T20:10:46.538Z,50.70
2019-02-15T20:13:20.986Z,29.10
2019-02-15T20:15:55.247Z,46.37
2019-02-15T20:18:30.207Z,65.10
2019-02-15T20:21:04.468Z,66.43
2019-02-15T20:23:39.224Z,68.23
2019-02-15T20:26:14.934Z,45.33
2019-02-15T20:28:48.698Z,37.13
2019-02-15T20:31:23.652Z,59.00
2019-02-15T20:33:57.918Z,93.47
2019-02-15T20:36:32.413Z,67.30
2019-02-15T20:39:07.603Z,61.70
2019-02-15T20:41:44.217Z,36.53
2019-02-15T20:44:19.797Z,82.07
2019-02-15T20:46:54.117Z,58.60
2019-02-15T20:49:38.804Z,70.87
2019-02-15T20:52:16.242Z,54.23
2019-02-15T20:54:53.644Z,57.17
2019-02-15T20:57:28.654Z,75.47
2019-02-15T21:00:03.479Z,23.77
2019-02-15T21:02:38.407Z,42.17
2019-02-15T21:05:14.181Z,18.03
2019-02-15T21:07:49.010Z,26.03
2019-02-15T21:10:24.852Z,23.23
2019-02-15T21:13:00.018Z,38.83
2019-02-15T21:15:34.596Z,12.10
2019-02-15T21:18:09.043Z,42.93
2019-02-15T21:20:43.178Z,6.00
2019-02-15T21:23:17.455Z,76.20
2019-02-15T21:25:51.873Z,45.20
2019-02-15T21:28:26.933Z,25.30
2019-02-15T21:31:03.621Z,27.90
2019-02-15T21:33:37.899Z,27.30
2019-02-15T21:36:11.630Z,33.70
2019-02-15T21:38:46.610Z,31.63
2019-02-15T21:41:20.893Z,44.00
2019-02-15T21:43:54.605Z,19.87
2019-02-15T21:46:28.592Z,26.00
2019-02-15T21:49:03.417Z,20.23
2019-02-15T21:51:37.816Z,36.73
2019-02-15T21:54:12.175Z,43.53
2019-02-15T21:56:49.943Z,40.73
2019-02-15T21:59:24.294Z,49.30
2019-02-15T22:02:00.181Z,41.33
2019-02-15T22:04:34.936Z,54.30
2019-02-15T22:07:09.203Z,34.97
2019-02-15T22:09:43.050Z,50.33
2019-02-15T22:12:17.374Z,38.07
2019-02-15T22:14:52.042Z,44.23
2019-02-15T22:17:27.951Z,38.07
2019-02-15T22:20:02.026Z,26.73
2019-02-15T22:22:36.273Z,41.17
2019-02-15T22:25:11.999Z,32.53
2019-02-15T22:27:45.691Z,20.17
2019-02-15T22:30:20.547Z,30.20
2019-02-15T22:32:55.289Z,17.17
2019-02-15T22:35:32.817Z,30.63
2019-02-15T22:38:06.883Z,29.17
2019-02-15T22:40:43.182Z,35.13
2019-02-15T22:43:22.225Z,41.07
2019-02-15T22:45:56.609Z,36.60
2019-02-15T22:48:31.198Z,20.17
2019-02-15T22:51:05.653Z,12.47
2019-02-15T22:53:39.937Z,34.87
2019-02-15T22:56:14.031Z,27.57
2019-02-15T22:58:50.846Z,23.83
2019-02-15T23:01:25.037Z,34.13
2019-02-15T23:03:59.075Z,23.13
2019-02-15T23:06:33.983Z,32.53
2019-02-15T23:09:15.074Z,31.27
2019-02-15T23:11:48.987Z,52.83
2019-02-15T23:14:22.793Z,51.70
2019-02-15T23:16:57.118Z,60.60
2019-02-15T23:19:31.539Z,64.63
2019-02-15T23:22:06.754Z,47.47
2019-02-15T23:24:40.739Z,35.50
2019-02-15T23:27:14.770Z,44.80
2019-02-15T23:29:48.503Z,41.20
2019-02-15T23:32:22.851Z,32.90
2019-02-15T23:34:56.399Z,32.17
2019-02-15T23:37:31.055Z,22.53
2019-02-15T23:40:04.898Z,27.93
2019-02-15T23:42:39.192Z,29.60
2019-02-15T23:45:13.167Z,29.87
2019-02-15T23:47:47.330Z,36.87
2019-02-15T23:50:21.673Z,24.87
2019-02-15T23:52:56.627Z,29.17
2019-02-15T23:55:33.207Z,26.37
2019-02-15T23:58:07.492Z,40.40
